Time;durP1;ratioP1;P1;durP2;ratioP2;P2;SDS_P1;SDS_P2;PMS_P1;PMS_P2;Temp;Humidity;BMP_temperature;BMP_pressure;BME280_temperature;BME280_humidity;BME280_pressure;Samples;Min_cycle;Max_cycle;Signal;HPM_P1;HPM_P2
2023/07/18 00:00:18;;;;;;;;;;;28.60;59.60;;;;;;5032488;28;87028;-55
2023/07/18 00:02:44;;;;;;;;;;;28.60;59.60;;;;;;5027334;28;89680;-52
2023/07/18 00:05:13;;;;;;;;;;;28.60;59.60;;;;;;5030175;28;88603;-54
2023/07/18 00:07:40;;;;;;;;;;;28.60;59.50;;;;;;5029429;27;87614;-51
2023/07/18 00:10:06;;;;;;;;;;;28.60;59.60;;;;;;5029959;28;88465;-50
2023/07/18 00:12:31;;;;;;;;;;;28.60;59.60;;;;;;5033539;28;87150;-56
2023/07/18 00:14:57;;;;;;;;;;;28.60;59.60;;;;;;5030414;28;87442;-49
2023/07/18 00:17:23;;;;;;;;;;;28.50;59.50;;;;;;5032890;28;88024;-53
2023/07/18 00:19:50;;;;;;;;;;;28.60;59.40;;;;;;5032370;28;87158;-56
2023/07/18 00:22:15;;;;;;;;;;;28.50;59.40;;;;;;5031130;28;88827;-54
2023/07/18 00:24:41;;;;;;;;;;;28.50;59.60;;;;;;5031888;28;87087;-53
2023/07/18 00:27:06;;;;;;;;;;;28.50;59.50;;;;;;5031947;28;87608;-50
2023/07/18 00:29:32;;;;;;;;;;;28.50;59.50;;;;;;5030382;28;88928;-50
2023/07/18 00:31:57;;;;;;;;;;;28.40;59.50;;;;;;5032035;28;87079;-50
2023/07/18 00:34:23;;;;;;;;;;;28.40;59.60;;;;;;5030322;28;87548;-54
2023/07/18 00:36:48;;;;;;;;;;;28.40;59.60;;;;;;5030035;28;87144;-51
2023/07/18 00:39:14;;;;;;;;;;;28.40;59.60;;;;;;5029390;28;87183;-53
2023/07/18 00:41:39;;;;;;;;;;;28.40;59.60;;;;;;5035890;28;87451;-54
2023/07/18 00:44:05;;;;;;;;;;;28.30;59.60;;;;;;5025912;28;86995;-52
2023/07/18 00:46:31;;;;;;;;;;;28.30;59.60;;;;;;5033508;28;88928;-51
2023/07/18 00:48:57;;;;;;;;;;;28.20;59.60;;;;;;5028792;28;87986;-58
2023/07/18 00:51:24;;;;;;;;;;;28.30;59.60;;;;;;5030332;28;87125;-52
2023/07/18 00:53:50;;;;;;;;;;;28.20;59.60;;;;;;5028251;27;88963;-52
2023/07/18 00:56:16;;;;;;;;;;;28.20;59.50;;;;;;5030976;28;88083;-54
2023/07/18 00:58:42;;;;;;;;;;;28.20;59.60;;;;;;5031933;28;86955;-52
2023/07/18 01:01:07;;;;;;;;;;;28.20;59.50;;;;;;5032978;28;88425;-50
2023/07/18 01:03:34;;;;;;;;;;;28.20;59.60;;;;;;5027590;28;87139;-55
2023/07/18 01:05:59;;;;;;;;;;;28.20;59.50;;;;;;5032230;28;88770;-54
2023/07/18 01:08:25;;;;;;;;;;;28.10;59.40;;;;;;5028299;28;88124;-59
2023/07/18 01:10:51;;;;;;;;;;;28.10;59.60;;;;;;5033539;28;86300;-55
2023/07/18 01:13:17;;;;;;;;;;;28.10;59.60;;;;;;5029732;28;88196;-55
2023/07/18 01:15:43;;;;;;;;;;;28.00;59.50;;;;;;5032044;28;88210;-55
2023/07/18 01:18:09;;;;;;;;;;;28.00;59.60;;;;;;5029739;28;88015;-52
2023/07/18 01:20:36;;;;;;;;;;;28.00;59.50;;;;;;5030363;27;88293;-57
2023/07/18 01:23:03;;;;;;;;;;;28.00;59.50;;;;;;5033997;27;89285;-53
2023/07/18 01:25:30;;;;;;;;;;;28.00;59.50;;;;;;5033698;27;88559;-53
2023/07/18 01:27:56;;;;;;;;;;;28.00;59.60;;;;;;5035234;28;89436;-48
2023/07/18 01:30:22;;;;;;;;;;;28.00;59.60;;;;;;5032418;28;87279;-54
2023/07/18 01:32:48;;;;;;;;;;;27.90;60.10;;;;;;5036236;28;87498;-54
2023/07/18 01:35:14;;;;;;;;;;;27.90;59.50;;;;;;5031214;28;87346;-53
2023/07/18 01:37:40;;;;;;;;;;;27.90;59.50;;;;;;5033956;28;87174;-55
2023/07/18 01:40:06;;;;;;;;;;;27.90;59.50;;;;;;5031707;28;87247;-54
2023/07/18 01:42:32;;;;;;;;;;;27.90;59.50;;;;;;5030005;28;90469;-51
2023/07/18 01:44:58;;;;;;;;;;;27.90;59.60;;;;;;5037086;28;87141;-55
2023/07/18 01:47:23;;;;;;;;;;;27.80;59.60;;;;;;5033670;28;88719;-54
2023/07/18 01:49:49;;;;;;;;;;;27.80;59.50;;;;;;5028213;28;87133;-55
2023/07/18 01:52:14;;;;;;;;;;;27.80;59.60;;;;;;5033526;28;88042;-53
2023/07/18 01:54:40;;;;;;;;;;;27.80;59.50;;;;;;5032336;28;87935;-55
2023/07/18 01:57:05;;;;;;;;;;;27.80;59.60;;;;;;5035330;28;87106;-54
2023/07/18 01:59:31;;;;;;;;;;;27.80;59.50;;;;;;5032979;28;87531;-54
2023/07/18 02:01:57;;;;;;;;;;;27.70;59.50;;;;;;5035527;28;87935;-55
2023/07/18 02:04:22;;;;;;;;;;;27.80;59.50;;;;;;5031533;28;87112;-56
2023/07/18 02:06:48;;;;;;;;;;;27.70;59.40;;;;;;5034655;28;88008;-52
2023/07/18 02:09:13;;;;;;;;;;;27.80;59.50;;;;;;5028965;28;87146;-54
2023/07/18 02:11:39;;;;;;;;;;;27.70;59.50;;;;;;5034807;28;87029;-53
2023/07/18 02:14:04;;;;;;;;;;;27.70;59.50;;;;;;5033154;28;87897;-57
2023/07/18 02:16:30;;;;;;;;;;;27.70;59.40;;;;;;5034057;28;87140;-54
2023/07/18 02:18:57;;;;;;;;;;;27.70;59.50;;;;;;5033945;28;87526;-53
2023/07/18 02:21:22;;;;;;;;;;;27.70;59.50;;;;;;5031883;28;88270;-52
2023/07/18 02:23:48;;;;;;;;;;;27.60;59.50;;;;;;5033504;28;86396;-58
2023/07/18 02:26:14;;;;;;;;;;;27.60;59.50;;;;;;5032232;28;87201;-54
2023/07/18 02:28:39;;;;;;;;;;;27.60;59.50;;;;;;5037514;28;89169;-53
2023/07/18 02:31:05;;;;;;;;;;;27.60;59.50;;;;;;5031142;28;87932;-55
2023/07/18 02:33:30;;;;;;;;;;;27.60;59.50;;;;;;5027390;28;88049;-57
2023/07/18 02:35:56;;;;;;;;;;;27.50;59.40;;;;;;5029854;28;87253;-57
2023/07/18 02:38:21;;;;;;;;;;;27.50;59.40;;;;;;5031459;28;87482;-51
2023/07/18 02:40:47;;;;;;;;;;;27.50;59.50;;;;;;5030989;28;87770;-51
2023/07/18 02:43:13;;;;;;;;;;;27.50;59.50;;;;;;5032521;28;87077;-58
2023/07/18 02:45:39;;;;;;;;;;;27.50;59.40;;;;;;5033536;28;87489;-58
2023/07/18 02:48:05;;;;;;;;;;;27.50;59.50;;;;;;5033408;28;87422;-56
2023/07/18 02:50:30;;;;;;;;;;;27.40;59.40;;;;;;5033552;28;87280;-58
2023/07/18 02:52:58;;;;;;;;;;;27.40;60.00;;;;;;5032120;28;87079;-56
2023/07/18 02:55:24;;;;;;;;;;;27.40;59.40;;;;;;5029702;28;88190;-58
2023/07/18 02:57:50;;;;;;;;;;;27.40;59.40;;;;;;5034891;28;88408;-50
2023/07/18 03:00:25;;;;;;;;;;;27.40;59.40;;;;;;5026958;28;87760;-55
2023/07/18 03:02:51;;;;;;;;;;;27.40;59.40;;;;;;5033038;28;87017;-54
2023/07/18 03:05:18;;;;;;;;;;;27.30;59.40;;;;;;5030013;28;87586;-54
2023/07/18 03:07:44;;;;;;;;;;;27.30;59.30;;;;;;5033299;28;87970;-57
2023/07/18 03:10:09;;;;;;;;;;;27.30;59.40;;;;;;5033119;28;87889;-56
2023/07/18 03:12:35;;;;;;;;;;;27.40;59.40;;;;;;5031882;28;87190;-50
2023/07/18 03:15:01;;;;;;;;;;;27.30;59.40;;;;;;5032342;28;87193;-53
2023/07/18 03:17:26;;;;;;;;;;;27.30;59.40;;;;;;5026321;27;88203;-54
2023/07/18 03:19:52;;;;;;;;;;;27.30;59.30;;;;;;5026558;28;89075;-55
2023/07/18 03:22:17;;;;;;;;;;;27.30;59.30;;;;;;5026675;28;87069;-55
2023/07/18 03:24:43;;;;;;;;;;;27.30;59.40;;;;;;5031445;28;88033;-57
2023/07/18 03:27:08;;;;;;;;;;;27.20;59.40;;;;;;5024337;28;88049;-54
2023/07/18 03:29:34;;;;;;;;;;;27.20;59.30;;;;;;5016009;28;87184;-51
2023/07/18 03:32:00;;;;;;;;;;;27.20;59.90;;;;;;5032695;28;88517;-53
2023/07/18 03:34:27;;;;;;;;;;;27.20;59.30;;;;;;5032000;28;87181;-53
2023/07/18 03:36:53;;;;;;;;;;;27.20;59.30;;;;;;5025184;28;89010;-55
2023/07/18 03:39:19;;;;;;;;;;;27.20;59.40;;;;;;5024474;28;87397;-55
2023/07/18 03:41:44;;;;;;;;;;;27.20;59.40;;;;;;5032122;28;87116;-47
2023/07/18 03:44:10;;;;;;;;;;;27.10;59.40;;;;;;5030187;27;87905;-53
2023/07/18 03:46:35;;;;;;;;;;;27.10;59.40;;;;;;5020507;28;87920;-58
2023/07/18 03:49:01;;;;;;;;;;;27.10;59.30;;;;;;5024063;28;87206;-55
2023/07/18 03:51:26;;;;;;;;;;;27.10;59.30;;;;;;5030568;28;89002;-53
2023/07/18 03:53:52;;;;;;;;;;;27.10;59.50;;;;;;5034010;28;87977;-56
2023/07/18 03:56:17;;;;;;;;;;;27.10;59.40;;;;;;5014919;28;88357;-53
2023/07/18 03:58:43;;;;;;;;;;;27.00;59.30;;;;;;5020566;28;88369;-59
2023/07/18 04:01:09;;;;;;;;;;;27.00;59.40;;;;;;5032363;28;86390;-51
2023/07/18 04:03:35;;;;;;;;;;;27.00;59.40;;;;;;5032004;27;87007;-49
2023/07/18 04:06:01;;;;;;;;;;;27.00;59.30;;;;;;5018141;28;89341;-54
2023/07/18 04:08:28;;;;;;;;;;;27.00;59.40;;;;;;5024257;28;88446;-51
2023/07/18 04:10:55;;;;;;;;;;;26.90;59.30;;;;;;5030325;28;88385;-51
2023/07/18 04:13:20;;;;;;;;;;;27.00;59.50;;;;;;5029953;28;88596;-54
2023/07/18 04:15:46;;;;;;;;;;;27.00;59.50;;;;;;5030514;28;87158;-53
2023/07/18 04:18:11;;;;;;;;;;;26.90;59.40;;;;;;5028367;28;88014;-58
2023/07/18 04:20:37;;;;;;;;;;;26.90;59.40;;;;;;5030439;28;87164;-50
2023/07/18 04:23:02;;;;;;;;;;;26.90;59.40;;;;;;5022369;28;87403;-52
2023/07/18 04:25:30;;;;;;;;;;;26.90;59.40;;;;;;5016285;28;88770;-54
2023/07/18 04:27:55;;;;;;;;;;;26.90;59.40;;;;;;5026509;28;87098;-49
2023/07/18 04:30:20;;;;;;;;;;;26.90;59.40;;;;;;5032135;28;87792;-50
2023/07/18 04:32:46;;;;;;;;;;;26.90;59.50;;;;;;5021658;28;89478;-58
2023/07/18 04:35:12;;;;;;;;;;;26.90;59.40;;;;;;5023291;28;87082;-55
2023/07/18 04:37:37;;;;;;;;;;;26.80;59.40;;;;;;5032276;28;87366;-55
2023/07/18 04:40:08;;;;;;;;;;;26.80;59.40;;;;;;5031021;28;88176;-55
2023/07/18 04:42:34;;;;;;;;;;;26.80;59.30;;;;;;5012716;28;88162;-56
2023/07/18 04:45:00;;;;;;;;;;;26.80;59.40;;;;;;5023655;28;88221;-55
2023/07/18 04:47:25;;;;;;;;;;;26.80;59.40;;;;;;5032348;28;87124;-50
2023/07/18 04:49:51;;;;;;;;;;;26.80;59.50;;;;;;5029640;28;88877;-57
2023/07/18 04:52:16;;;;;;;;;;;26.80;59.50;;;;;;5025230;28;88115;-50
2023/07/18 04:54:42;;;;;;;;;;;26.70;59.50;;;;;;5024988;28;87198;-52
2023/07/18 04:57:08;;;;;;;;;;;26.80;59.70;;;;;;5030483;27;88896;-55
2023/07/18 04:59:33;;;;;;;;;;;26.70;59.50;;;;;;5030978;28;88802;-54
2023/07/18 05:01:59;;;;;;;;;;;26.70;59.50;;;;;;5028465;28;87881;-55
2023/07/18 05:04:24;;;;;;;;;;;26.70;59.70;;;;;;5028571;28;87255;-51
2023/07/18 05:06:50;;;;;;;;;;;26.70;59.70;;;;;;5033167;28;87544;-50
2023/07/18 05:09:17;;;;;;;;;;;26.70;59.60;;;;;;5032917;28;87523;-55
2023/07/18 05:11:42;;;;;;;;;;;26.70;59.80;;;;;;5021272;28;88295;-52
2023/07/18 05:14:08;;;;;;;;;;;26.70;59.80;;;;;;5027438;28;86869;-54
2023/07/18 05:16:33;;;;;;;;;;;26.70;59.80;;;;;;5036068;27;87838;-52
2023/07/18 05:18:59;;;;;;;;;;;26.70;59.80;;;;;;5030870;28;87162;-52
2023/07/18 05:21:24;;;;;;;;;;;26.70;59.80;;;;;;5025390;28;88305;-51
2023/07/18 05:23:50;;;;;;;;;;;26.70;59.80;;;;;;5030653;28;87854;-54
2023/07/18 05:26:16;;;;;;;;;;;26.70;59.90;;;;;;5033522;28;86938;-57
2023/07/18 05:28:41;;;;;;;;;;;26.70;59.80;;;;;;5027710;28;87432;-55
2023/07/18 05:31:08;;;;;;;;;;;26.70;59.80;;;;;;5026012;28;87699;-53
2023/07/18 05:33:34;;;;;;;;;;;26.70;59.80;;;;;;5032214;28;87450;-53
2023/07/18 05:35:59;;;;;;;;;;;26.70;59.80;;;;;;5034554;28;87390;-50
2023/07/18 05:38:25;;;;;;;;;;;26.70;59.80;;;;;;5029358;28;87309;-57
2023/07/18 05:40:50;;;;;;;;;;;26.70;59.80;;;;;;5026120;28;87140;-55
2023/07/18 05:43:18;;;;;;;;;;;26.70;59.90;;;;;;5035855;28;87959;-52
2023/07/18 05:45:44;;;;;;;;;;;26.70;59.90;;;;;;5030234;28;88163;-54
2023/07/18 05:48:09;;;;;;;;;;;26.70;59.90;;;;;;5024670;28;88395;-55
2023/07/18 05:50:35;;;;;;;;;;;26.70;60.00;;;;;;5028320;28;88201;-56
2023/07/18 05:53:01;;;;;;;;;;;26.70;60.00;;;;;;5034265;28;87110;-53
2023/07/18 05:55:27;;;;;;;;;;;26.70;60.00;;;;;;5027810;28;87506;-56
2023/07/18 05:57:53;;;;;;;;;;;26.70;60.00;;;;;;5030119;28;88176;-53
2023/07/18 06:00:19;;;;;;;;;;;26.70;60.10;;;;;;5031483;28;87933;-54
2023/07/18 06:02:47;;;;;;;;;;;26.70;60.10;;;;;;5035485;27;88194;-54
2023/07/18 06:05:13;;;;;;;;;;;26.70;60.10;;;;;;5024193;28;87157;-54
2023/07/18 06:07:39;;;;;;;;;;;26.70;60.20;;;;;;5029710;28;88030;-50
2023/07/18 06:10:05;;;;;;;;;;;26.70;60.30;;;;;;5029720;28;89022;-50
2023/07/18 06:12:30;;;;;;;;;;;26.70;60.30;;;;;;5034662;28;87183;-56
2023/07/18 06:14:56;;;;;;;;;;;26.70;60.40;;;;;;5027562;28;87492;-58
2023/07/18 06:17:21;;;;;;;;;;;26.70;60.40;;;;;;5021976;28;89325;-52
2023/07/18 06:19:47;;;;;;;;;;;26.70;60.40;;;;;;5031814;28;87679;-54
2023/07/18 06:22:13;;;;;;;;;;;26.70;60.40;;;;;;5032813;28;87549;-51
2023/07/18 06:24:39;;;;;;;;;;;26.70;60.40;;;;;;5033627;28;89085;-54
2023/07/18 06:27:05;;;;;;;;;;;26.70;60.40;;;;;;5019005;28;86894;-51
2023/07/18 06:29:30;;;;;;;;;;;26.70;60.40;;;;;;5033493;28;90697;-53
2023/07/18 06:31:56;;;;;;;;;;;26.70;60.40;;;;;;5032128;28;87134;-49
2023/07/18 06:34:22;;;;;;;;;;;26.70;60.60;;;;;;5021665;28;89906;-48
2023/07/18 06:36:48;;;;;;;;;;;26.70;60.60;;;;;;5027903;28;89466;-54
2023/07/18 06:39:16;;;;;;;;;;;26.70;60.50;;;;;;5032492;28;87569;-54
2023/07/18 06:41:43;;;;;;;;;;;26.70;60.50;;;;;;5025529;27;88724;-58
2023/07/18 06:44:14;;;;;;;;;;;26.80;60.60;;;;;;5025800;28;89332;-54
2023/07/18 06:46:40;;;;;;;;;;;26.80;60.60;;;;;;5033006;28;87132;-54
2023/07/18 06:49:05;;;;;;;;;;;26.70;60.60;;;;;;5031696;28;87488;-51
2023/07/18 06:51:30;;;;;;;;;;;26.70;60.60;;;;;;5026598;28;86478;-54
2023/07/18 06:53:56;;;;;;;;;;;26.70;60.60;;;;;;5022956;28;87575;-56
2023/07/18 06:56:22;;;;;;;;;;;26.70;60.70;;;;;;5027813;28;88145;-51
2023/07/18 06:58:48;;;;;;;;;;;26.70;60.70;;;;;;5033862;28;88107;-51
2023/07/18 07:01:13;;;;;;;;;;;26.70;60.70;;;;;;5022975;28;88280;-53
2023/07/18 07:03:39;;;;;;;;;;;26.80;60.80;;;;;;5027912;28;88713;-52
2023/07/18 07:06:09;;;;;;;;;;;26.70;60.70;;;;;;5029095;28;87161;-57
2023/07/18 07:08:35;;;;;;;;;;;26.70;60.70;;;;;;5036257;28;87596;-52
2023/07/18 07:11:05;;;;;;;;;;;26.70;60.70;;;;;;5025954;28;87467;-58
2023/07/18 07:13:30;;;;;;;;;;;26.80;60.80;;;;;;5023752;28;88939;-50
2023/07/18 07:15:56;;;;;;;;;;;26.70;60.80;;;;;;5022571;28;87280;-54
2023/07/18 07:18:21;;;;;;;;;;;26.70;60.80;;;;;;5034308;28;87138;-54
2023/07/18 07:20:47;;;;;;;;;;;26.70;60.90;;;;;;5024199;28;88272;-48
2023/07/18 07:23:13;;;;;;;;;;;26.70;60.80;;;;;;5021754;28;88916;-53
2023/07/18 07:25:39;;;;;;;;;;;26.70;60.90;;;;;;5024838;28;89066;-52
2023/07/18 07:28:04;;;;;;;;;;;26.70;60.80;;;;;;5034851;28;88881;-56
2023/07/18 07:30:30;;;;;;;;;;;26.70;60.90;;;;;;5022822;28;87145;-54
2023/07/18 07:32:55;;;;;;;;;;;26.70;60.90;;;;;;5022071;28;87457;-55
2023/07/18 07:35:22;;;;;;;;;;;26.70;61.00;;;;;;5029352;28;87935;-55
2023/07/18 07:37:50;;;;;;;;;;;26.70;60.90;;;;;;5030968;28;87237;-51
2023/07/18 07:40:16;;;;;;;;;;;26.80;61.00;;;;;;5023514;28;87543;-58
2023/07/18 07:42:42;;;;;;;;;;;26.70;60.90;;;;;;5025794;28;88372;-54
2023/07/18 07:45:08;;;;;;;;;;;26.80;61.10;;;;;;5030926;28;87107;-58
2023/07/18 07:47:34;;;;;;;;;;;26.80;61.10;;;;;;5032612;28;87953;-53
2023/07/18 07:50:01;;;;;;;;;;;26.80;61.10;;;;;;5021931;28;88074;-54
2023/07/18 07:52:26;;;;;;;;;;;26.80;61.00;;;;;;5026370;28;88844;-54
2023/07/18 07:54:52;;;;;;;;;;;26.80;61.20;;;;;;5031935;28;88296;-53
2023/07/18 07:57:17;;;;;;;;;;;26.80;61.20;;;;;;5025994;28;88945;-49
2023/07/18 07:59:43;;;;;;;;;;;26.80;61.10;;;;;;5021800;28;87754;-56
2023/07/18 08:02:09;;;;;;;;;;;26.80;61.10;;;;;;5026960;28;87873;-56
2023/07/18 08:04:36;;;;;;;;;;;26.80;61.10;;;;;;5031307;28;86824;-54
2023/07/18 08:07:03;;;;;;;;;;;26.80;61.20;;;;;;5029989;28;87510;-54
2023/07/18 08:09:29;;;;;;;;;;;26.80;61.30;;;;;;5029281;28;88811;-59
2023/07/18 08:11:54;;;;;;;;;;;26.80;61.40;;;;;;5025442;28;88168;-53
2023/07/18 08:14:20;;;;;;;;;;;26.80;61.50;;;;;;5030735;28;88725;-57
2023/07/18 08:16:45;;;;;;;;;;;26.80;61.40;;;;;;5026284;28;87528;-55
2023/07/18 08:19:11;;;;;;;;;;;26.80;61.40;;;;;;5029061;28;87787;-51
2023/07/18 08:21:37;;;;;;;;;;;26.80;61.40;;;;;;5021765;28;89420;-51
2023/07/18 08:24:02;;;;;;;;;;;26.80;61.40;;;;;;5032429;28;86976;-52
2023/07/18 08:26:28;;;;;;;;;;;26.90;61.40;;;;;;5027447;27;87591;-50
2023/07/18 08:28:54;;;;;;;;;;;26.90;61.40;;;;;;5026327;28;86668;-55
2023/07/18 08:31:19;;;;;;;;;;;26.90;61.60;;;;;;5027464;28;87421;-51
2023/07/18 08:33:45;;;;;;;;;;;26.90;61.40;;;;;;5037843;27;87608;-54
2023/07/18 08:36:10;;;;;;;;;;;26.90;61.60;;;;;;5032285;28;88178;-53
2023/07/18 08:38:36;;;;;;;;;;;26.90;61.50;;;;;;5033596;28;88201;-49
2023/07/18 08:41:01;;;;;;;;;;;26.90;61.40;;;;;;5036152;28;89308;-55
2023/07/18 08:43:27;;;;;;;;;;;26.90;61.50;;;;;;5032283;28;87406;-49
2023/07/18 08:45:53;;;;;;;;;;;27.00;61.50;;;;;;5036396;28;87461;-57
2023/07/18 08:48:18;;;;;;;;;;;27.00;61.50;;;;;;5034545;28;88140;-54
2023/07/18 08:50:44;;;;;;;;;;;27.00;61.60;;;;;;5034999;28;87286;-55
2023/07/18 08:53:10;;;;;;;;;;;27.00;61.60;;;;;;5036088;28;87764;-51
2023/07/18 08:55:36;;;;;;;;;;;27.00;61.80;;;;;;5037397;28;88091;-56
2023/07/18 08:58:02;;;;;;;;;;;27.00;61.60;;;;;;5030562;28;88672;-51
2023/07/18 09:00:28;;;;;;;;;;;27.00;61.80;;;;;;5033123;28;89008;-54
2023/07/18 09:02:54;;;;;;;;;;;27.00;61.80;;;;;;5036750;28;87155;-56
2023/07/18 09:05:33;;;;;;;;;;;27.00;61.80;;;;;;5032228;27;88669;-54
2023/07/18 09:08:00;;;;;;;;;;;26.90;61.70;;;;;;5034586;28;88346;-50
2023/07/18 09:10:25;;;;;;;;;;;26.90;61.70;;;;;;5035582;28;87072;-53
2023/07/18 09:12:51;;;;;;;;;;;26.90;61.80;;;;;;5033782;27;88166;-53
2023/07/18 09:15:18;;;;;;;;;;;27.00;61.90;;;;;;5033201;28;88015;-53
2023/07/18 09:17:47;;;;;;;;;;;27.00;61.80;;;;;;5039113;28;86271;-58
2023/07/18 09:20:16;;;;;;;;;;;27.00;61.90;;;;;;5028349;28;89374;-53
2023/07/18 09:22:42;;;;;;;;;;;27.00;61.80;;;;;;5031625;28;87244;-52
2023/07/18 09:25:07;;;;;;;;;;;27.00;61.90;;;;;;5034406;27;88874;-53
2023/07/18 09:27:35;;;;;;;;;;;27.10;61.90;;;;;;5031703;28;88743;-52
2023/07/18 09:30:00;;;;;;;;;;;27.10;61.90;;;;;;5035195;28;87108;-56
2023/07/18 09:32:26;;;;;;;;;;;27.10;61.90;;;;;;5033753;27;87480;-52
2023/07/18 09:34:52;;;;;;;;;;;27.10;61.80;;;;;;5035014;28;89284;-54
2023/07/18 09:37:18;;;;;;;;;;;27.10;62.20;;;;;;5034931;28;86996;-51
2023/07/18 09:39:44;;;;;;;;;;;27.10;62.20;;;;;;5032118;28;88969;-57
2023/07/18 09:42:10;;;;;;;;;;;27.10;62.20;;;;;;5027564;28;86293;-53
2023/07/18 09:44:37;;;;;;;;;;;27.20;62.00;;;;;;5035333;28;87100;-56
2023/07/18 09:47:02;;;;;;;;;;;27.20;61.90;;;;;;5033221;28;89374;-54
2023/07/18 09:49:28;;;;;;;;;;;27.20;62.00;;;;;;5034219;28;88040;-54
2023/07/18 09:52:00;;;;;;;;;;;27.20;61.90;;;;;;5030943;28;88937;-55
2023/07/18 09:54:27;;;;;;;;;;;27.20;62.20;;;;;;5032946;28;89974;-53
2023/07/18 09:56:54;;;;;;;;;;;27.30;62.30;;;;;;5031849;28;87164;-55
2023/07/18 09:59:20;;;;;;;;;;;27.30;62.30;;;;;;5038699;28;87063;-58
2023/07/18 10:01:48;;;;;;;;;;;27.30;62.40;;;;;;5032487;28;87195;-56
2023/07/18 10:04:15;;;;;;;;;;;27.30;62.10;;;;;;5034596;28;88951;-57
2023/07/18 10:06:41;;;;;;;;;;;27.30;62.20;;;;;;5030532;28;87280;-54
2023/07/18 10:09:07;;;;;;;;;;;27.40;62.20;;;;;;5033804;28;87105;-53
2023/07/18 10:11:53;;;;;;;;;;;27.40;62.20;;;;;;5033188;28;87537;-51
2023/07/18 10:14:18;;;;;;;;;;;27.40;62.20;;;;;;5029132;28;88956;-55
2023/07/18 10:16:53;;;;;;;;;;;27.40;62.30;;;;;;5034154;28;87109;-52
2023/07/18 10:19:20;;;;;;;;;;;27.40;62.20;;;;;;5035142;28;87444;-52
2023/07/18 10:21:46;;;;;;;;;;;27.40;62.30;;;;;;5032734;28;89426;-51
2023/07/18 10:24:31;;;;;;;;;;;27.40;62.60;;;;;;5027750;28;89090;-51
2023/07/18 10:26:58;;;;;;;;;;;27.40;62.20;;;;;;5031864;28;88309;-56
2023/07/18 10:29:28;;;;;;;;;;;27.40;62.20;;;;;;5034913;28;87241;-57
2023/07/18 10:31:53;;;;;;;;;;;27.40;62.00;;;;;;5028964;28;87467;-56
2023/07/18 10:34:19;;;;;;;;;;;27.40;62.20;;;;;;5034366;28;87290;-57
2023/07/18 10:36:56;;;;;;;;;;;27.40;62.00;;;;;;5031975;28;87678;-54
2023/07/18 10:39:42;;;;;;;;;;;27.50;62.00;;;;;;5031593;27;88882;-50
2023/07/18 10:42:21;;;;;;;;;;;27.50;62.00;;;;;;5029906;28;87238;-58
2023/07/18 10:44:47;;;;;;;;;;;27.50;62.00;;;;;;5030979;28;87117;-53
2023/07/18 10:47:15;;;;;;;;;;;27.50;62.00;;;;;;5034032;28;89276;-51
2023/07/18 10:49:42;;;;;;;;;;;27.50;62.10;;;;;;5032875;28;87450;-50
2023/07/18 10:52:08;;;;;;;;;;;27.50;62.00;;;;;;5030229;27;87305;-55
2023/07/18 10:54:33;;;;;;;;;;;27.50;61.90;;;;;;5032651;28;87819;-57
2023/07/18 10:56:59;;;;;;;;;;;27.60;61.90;;;;;;5033472;28;86390;-56
2023/07/18 10:59:25;;;;;;;;;;;27.60;61.80;;;;;;5032437;28;87923;-54
2023/07/18 11:01:50;;;;;;;;;;;27.60;61.80;;;;;;5034076;28;88126;-56
2023/07/18 11:04:16;;;;;;;;;;;27.60;61.80;;;;;;5030519;28;88676;-52
2023/07/18 11:06:53;;;;;;;;;;;27.70;61.80;;;;;;5036937;28;88429;-54
2023/07/18 11:09:19;;;;;;;;;;;27.70;61.80;;;;;;5029985;28;87091;-56
2023/07/18 11:11:44;;;;;;;;;;;27.70;61.70;;;;;;5031794;28;87552;-52
2023/07/18 11:14:10;;;;;;;;;;;27.70;61.70;;;;;;5031741;28;87303;-54
2023/07/18 11:16:36;;;;;;;;;;;27.70;61.60;;;;;;5033364;28;87134;-53
2023/07/18 11:19:04;;;;;;;;;;;27.80;61.60;;;;;;5031219;27;88667;-58
2023/07/18 11:21:30;;;;;;;;;;;27.70;61.50;;;;;;5034255;28;87296;-51
2023/07/18 11:23:56;;;;;;;;;;;27.70;61.60;;;;;;5027021;28;88004;-50
2023/07/18 11:26:21;;;;;;;;;;;27.80;61.60;;;;;;5033847;28;87531;-51
2023/07/18 11:28:51;;;;;;;;;;;27.80;61.50;;;;;;5029755;28;87959;-58
2023/07/18 11:31:38;;;;;;;;;;;27.80;61.50;;;;;;5032672;28;88387;-54
2023/07/18 11:34:05;;;;;;;;;;;27.80;61.40;;;;;;5027869;28;89330;-55
2023/07/18 11:36:37;;;;;;;;;;;27.90;61.40;;;;;;5032830;28;87139;-50
2023/07/18 11:39:14;;;;;;;;;;;27.90;61.40;;;;;;5031247;28;87261;-55
2023/07/18 11:41:40;;;;;;;;;;;27.90;61.40;;;;;;5026898;28;88200;-53
2023/07/18 11:44:06;;;;;;;;;;;27.90;61.30;;;;;;5029883;28;87394;-53
2023/07/18 11:46:36;;;;;;;;;;;27.90;61.40;;;;;;5032926;27;88602;-51
2023/07/18 11:49:02;;;;;;;;;;;27.90;61.30;;;;;;5035105;28;88231;-53
2023/07/18 11:51:28;;;;;;;;;;;27.90;61.20;;;;;;5031767;28;87500;-54
2023/07/18 11:53:54;;;;;;;;;;;27.90;61.10;;;;;;5028498;28;92222;-55
2023/07/18 11:56:19;;;;;;;;;;;27.90;61.10;;;;;;5030863;28;87600;-52
2023/07/18 11:58:45;;;;;;;;;;;28.00;61.10;;;;;;5031393;28;87372;-52
2023/07/18 12:01:10;;;;;;;;;;;28.00;61.10;;;;;;5034049;28;87976;-54
2023/07/18 12:03:36;;;;;;;;;;;27.90;61.10;;;;;;5030060;28;87569;-55
2023/07/18 12:06:02;;;;;;;;;;;27.90;61.00;;;;;;5033505;28;87521;-49
2023/07/18 12:08:27;;;;;;;;;;;28.00;60.90;;;;;;5029562;28;88020;-54
2023/07/18 12:10:52;;;;;;;;;;;28.00;60.90;;;;;;5034050;28;86399;-54
2023/07/18 12:13:19;;;;;;;;;;;28.00;60.90;;;;;;5029493;28;87684;-54
2023/07/18 12:15:44;;;;;;;;;;;28.00;60.90;;;;;;5032103;28;87106;-51
2023/07/18 12:18:11;;;;;;;;;;;28.10;60.90;;;;;;5031353;28;88324;-54
2023/07/18 12:20:36;;;;;;;;;;;28.10;60.80;;;;;;5030288;28;88088;-56
2023/07/18 12:23:02;;;;;;;;;;;28.10;60.80;;;;;;5028052;28;87092;-50
2023/07/18 12:25:31;;;;;;;;;;;28.10;60.80;;;;;;5031192;28;88739;-55
2023/07/18 12:28:00;;;;;;;;;;;28.10;60.80;;;;;;5028776;28;89311;-56
2023/07/18 12:30:26;;;;;;;;;;;28.10;60.20;;;;;;5026517;28;87532;-55
2023/07/18 12:32:52;;;;;;;;;;;28.10;60.30;;;;;;5033945;28;87455;-52
2023/07/18 12:35:18;;;;;;;;;;;28.20;60.30;;;;;;5030881;28;87117;-55
2023/07/18 12:37:44;;;;;;;;;;;28.20;60.10;;;;;;5031489;28;87339;-56
2023/07/18 12:40:09;;;;;;;;;;;28.10;59.90;;;;;;5025472;28;88272;-57
2023/07/18 12:42:35;;;;;;;;;;;28.10;59.80;;;;;;5030748;28;88150;-52
2023/07/18 12:45:00;;;;;;;;;;;28.10;59.70;;;;;;5030043;27;88080;-52
2023/07/18 12:47:26;;;;;;;;;;;28.20;60.20;;;;;;5032227;28;88981;-53
2023/07/18 12:49:51;;;;;;;;;;;28.20;59.40;;;;;;5030533;28;87085;-53
2023/07/18 12:52:17;;;;;;;;;;;28.20;59.40;;;;;;5033521;28;87705;-53
2023/07/18 12:54:42;;;;;;;;;;;28.20;58.70;;;;;;5031579;28;88055;-52
2023/07/18 12:57:08;;;;;;;;;;;28.20;58.90;;;;;;5033176;28;87092;-51
2023/07/18 12:59:33;;;;;;;;;;;28.20;58.60;;;;;;5028828;28;87336;-57
2023/07/18 13:01:59;;;;;;;;;;;28.20;58.90;;;;;;5032176;28;87165;-53
2023/07/18 13:04:25;;;;;;;;;;;28.30;58.70;;;;;;5030171;28;88760;-52
2023/07/18 13:06:50;;;;;;;;;;;28.30;58.20;;;;;;5028415;28;89004;-51
2023/07/18 13:09:16;;;;;;;;;;;28.30;58.50;;;;;;5026824;28;87441;-54
2023/07/18 13:11:42;;;;;;;;;;;28.30;58.60;;;;;;5031649;28;87523;-56
2023/07/18 13:14:07;;;;;;;;;;;28.30;57.90;;;;;;5028587;28;87842;-56
2023/07/18 13:16:33;;;;;;;;;;;28.30;57.80;;;;;;5032448;27;87179;-55
2023/07/18 13:18:58;;;;;;;;;;;28.30;58.00;;;;;;5032042;27;88202;-54
2023/07/18 13:21:24;;;;;;;;;;;28.30;58.20;;;;;;5031833;28;87319;-50
2023/07/18 13:23:49;;;;;;;;;;;28.40;57.80;;;;;;5034159;28;87461;-57
2023/07/18 13:26:15;;;;;;;;;;;28.40;57.50;;;;;;5031836;28;89277;-56
2023/07/18 13:28:41;;;;;;;;;;;28.40;56.80;;;;;;5033211;28;87416;-55
2023/07/18 13:31:07;;;;;;;;;;;28.50;57.70;;;;;;5034599;28;88037;-56
2023/07/18 13:33:32;;;;;;;;;;;28.50;57.10;;;;;;5032479;28;87963;-54
2023/07/18 13:35:58;;;;;;;;;;;28.50;56.90;;;;;;5038203;28;87637;-50
2023/07/18 13:38:24;;;;;;;;;;;28.60;56.60;;;;;;5033347;28;87820;-56
2023/07/18 13:40:50;;;;;;;;;;;28.50;56.40;;;;;;5033597;28;87122;-52
2023/07/18 13:43:16;;;;;;;;;;;28.60;55.60;;;;;;5034876;28;87429;-49
2023/07/18 13:45:41;;;;;;;;;;;28.60;56.00;;;;;;5032329;28;87951;-56
2023/07/18 13:48:07;;;;;;;;;;;28.60;55.70;;;;;;5035210;28;86795;-53
2023/07/18 13:50:33;;;;;;;;;;;28.60;55.80;;;;;;5032726;27;88141;-49
2023/07/18 13:52:58;;;;;;;;;;;28.60;55.90;;;;;;5035836;28;88229;-55
2023/07/18 13:55:24;;;;;;;;;;;28.70;55.20;;;;;;5029550;28;88153;-55
2023/07/18 13:57:49;;;;;;;;;;;28.70;55.30;;;;;;5037392;28;89811;-51
2023/07/18 14:00:15;;;;;;;;;;;28.70;55.20;;;;;;5029405;28;87188;-51
2023/07/18 14:02:41;;;;;;;;;;;28.80;54.80;;;;;;5034730;27;87420;-54
2023/07/18 14:05:06;;;;;;;;;;;28.80;54.70;;;;;;5032657;28;87747;-58
2023/07/18 14:07:33;;;;;;;;;;;28.70;54.60;;;;;;5033189;28;87191;-53
2023/07/18 14:09:58;;;;;;;;;;;28.80;54.70;;;;;;5034266;28;88933;-54